Saint Francis, Wisconsin
Current Conditions -  °F | °C
As of 8:52 PM on Tuesday 21 Oct 2014 (Local Time) from KMKE Reporting Station
Few Clouds Few Clouds  
Wind Chill: 40°   Ceiling: Unl
Heat Index: 45°   Visibility: 10mi
Dew Point: 35°   Wind: 10mph
Humidity: 68%   Direction: 30°NNE
Pressure: 30.27"   Gusts: NA
Location:  42.97°N, 87.88°W
Report Text: KMKE 220152Z 03009KT 10SM FEW027 07/02 A3027 RMK AO2 SLP255 T00720017
Loading
Personal Weather Stations






























Interactive Weather Map
Tropical Storm Tracking
New forecast layout! Learn more

10-Day Weather Forecast

Advertisements
Track Severe Weather on mobile